Archival Weather

Chicago O'Hare International

Chicago, Illinois (KORD)

Report from: Saturday, March 18, 2023 6:51 PM CDT
Current time: Saturday, March 2, 2024 4:15 AM CST

Current weather – Weather history – Daily summaries
Weather forecast

Temperature-5.6°C (21.9°F)
Wind chill-12.0°C (10.4°F)
Dew point-12.2°C (10.0°F)
Winds 10 kts (5.1 m/s, 11.5 mph) West-Northwest (290°)
Wind gusts 19 kts (9.8 m/s, 21.9 mph)
Visibility9 mi. (14.5 km)
Clouds Scattered clouds 3,600 ft. (1,097 m)
Scattered clouds 5,000 ft. (1,524 m)
Ceiling: Broken clouds 6,500 ft. (1,981 m)
Altimeter30.12 in.Hg (1020 mB)
PrecipitiationTrace
Precip. events Snow ended 11:48 PM
Precip last 3 hoursTrace
Relative humidity60 %
Density altitude-2,776 ft. (-846 m)
Sea-level pressure102.1 kPa (1021 mB, 30.15 in.Hg)
Max temp last 6 hours-3.9°C (25.0°F)
Min temp last 6 hours-6.7°C (19.9°F)
Remarks System requires maintenance
Automated weather observing station with precipitation discriminator
Pressure rising more quickly
Flight conditions Visual Meteorological Conditions
Raw dataKORD 182351Z 29010G19KT 9SM SCT036 SCT050 BKN065 M06/M12 A3012 RMK AO2 SNE48 SLP211 VCSH P0000 60000 T10561122 11039 21067 53022 $
An error has occurred. This application may no longer respond until reloaded. Reload 🗙